createdAt,value
2022-12-17T00:01:46.057Z,15.20
2022-12-17T00:04:31.646Z,13.75
2022-12-17T00:07:17.289Z,17.62
2022-12-17T00:10:02.823Z,15.55
2022-12-17T00:12:48.498Z,17.55
2022-12-17T00:15:34.096Z,16.23
2022-12-17T00:18:23.692Z,16.67
2022-12-17T00:21:13.749Z,18.87
2022-12-17T00:23:59.434Z,15.45
2022-12-17T00:26:45.014Z,13.68
2022-12-17T00:29:30.455Z,18.52
2022-12-17T00:32:16.063Z,14.70
2022-12-17T00:35:01.538Z,16.33
2022-12-17T00:37:47.127Z,16.52
2022-12-17T00:40:32.759Z,17.20
2022-12-17T00:43:24.288Z,13.32
2022-12-17T00:46:10.265Z,16.08
2022-12-17T00:48:56.019Z,15.52
2022-12-17T00:51:42.705Z,17.85
2022-12-17T00:54:27.941Z,17.92
2022-12-17T00:57:13.523Z,15.85
2022-12-17T00:59:58.963Z,18.05
2022-12-17T01:02:45.209Z,14.63
2022-12-17T01:05:31.350Z,16.20
2022-12-17T01:08:25.130Z,14.50
2022-12-17T01:11:10.501Z,16.00
2022-12-17T01:13:56.586Z,13.32
2022-12-17T01:16:42.247Z,15.32
2022-12-17T01:19:27.985Z,14.60
2022-12-17T01:22:13.682Z,17.25
2022-12-17T01:24:59.231Z,13.48
2022-12-17T01:27:44.942Z,20.00
2022-12-17T01:30:30.336Z,18.30
2022-12-17T01:33:23.044Z,17.65
2022-12-17T01:36:08.758Z,12.70
2022-12-17T01:38:54.332Z,18.65
2022-12-17T01:41:39.876Z,19.10
2022-12-17T01:45:02.422Z,15.35
2022-12-17T01:47:51.873Z,19.58
2022-12-17T01:50:37.852Z,20.35
2022-12-17T01:53:24.963Z,16.00
2022-12-17T01:56:10.656Z,14.15
2022-12-17T01:58:56.029Z,18.52
2022-12-17T02:01:41.357Z,17.77
2022-12-17T02:04:40.925Z,15.57
2022-12-17T02:07:44.785Z,16.35
2022-12-17T02:10:39.135Z,16.23
2022-12-17T02:13:40.221Z,16.95
2022-12-17T02:16:35.064Z,14.70
2022-12-17T02:19:34.882Z,17.70
2022-12-17T02:22:26.712Z,17.62
2022-12-17T02:25:19.013Z,14.75
2022-12-17T02:28:04.371Z,14.65
2022-12-17T02:30:50.738Z,15.10
2022-12-17T02:33:36.439Z,15.93
2022-12-17T02:36:24.666Z,14.85
2022-12-17T02:42:08.371Z,17.52
2022-12-17T02:47:41.694Z,14.27
2022-12-17T02:53:13.119Z,12.68
2022-12-17T02:55:58.679Z,15.68
2022-12-17T02:58:44.159Z,15.93
2022-12-17T03:01:29.885Z,16.98
2022-12-17T03:04:15.392Z,17.02
2022-12-17T03:07:01.050Z,17.17
2022-12-17T03:09:46.604Z,18.35
2022-12-17T03:12:32.110Z,16.15
2022-12-17T03:15:17.877Z,12.80
2022-12-17T03:18:03.428Z,15.63
2022-12-17T03:20:48.689Z,15.52
2022-12-17T03:23:34.847Z,17.10
2022-12-17T03:26:21.677Z,13.57
2022-12-17T03:29:07.942Z,14.80
2022-12-17T03:31:53.912Z,13.68
2022-12-17T03:34:39.475Z,12.60
2022-12-17T03:37:25.196Z,15.38
2022-12-17T03:40:10.760Z,17.02
2022-12-17T03:42:56.405Z,16.25
2022-12-17T03:45:42.143Z,15.25
2022-12-17T03:48:30.222Z,15.27
2022-12-17T03:54:01.427Z,16.23
2022-12-17T03:56:47.376Z,14.50
2022-12-17T03:59:33.080Z,14.43
2022-12-17T04:02:18.815Z,13.68
2022-12-17T04:05:04.356Z,14.32
2022-12-17T04:07:49.767Z,14.85
2022-12-17T04:10:35.256Z,13.93
2022-12-17T04:13:20.852Z,12.90
2022-12-17T04:16:06.385Z,13.70
2022-12-17T04:18:52.043Z,15.23
2022-12-17T04:21:37.556Z,15.80
2022-12-17T04:24:23.081Z,15.65
2022-12-17T04:27:08.759Z,14.55
2022-12-17T04:29:55.307Z,16.85
2022-12-17T04:32:40.834Z,17.17
2022-12-17T04:35:26.362Z,14.20
2022-12-17T04:38:11.904Z,15.60
2022-12-17T04:40:57.590Z,11.43
2022-12-17T04:43:43.117Z,16.08
2022-12-17T04:46:28.890Z,14.75
2022-12-17T04:49:14.538Z,14.90
2022-12-17T04:52:00.082Z,15.77
2022-12-17T04:54:45.778Z,15.82
2022-12-17T04:57:31.240Z,16.37
2022-12-17T05:00:16.870Z,16.33
2022-12-17T05:03:02.653Z,14.00
2022-12-17T05:05:47.983Z,13.00
2022-12-17T05:08:36.900Z,14.32
2022-12-17T05:11:26.824Z,16.85
2022-12-17T05:14:12.370Z,17.27
2022-12-17T05:16:57.950Z,16.00
2022-12-17T05:19:43.711Z,17.77
2022-12-17T05:22:29.177Z,17.60
2022-12-17T05:25:14.715Z,15.70
2022-12-17T05:28:00.151Z,15.20
2022-12-17T05:30:45.790Z,16.90
2022-12-17T05:33:31.394Z,19.85
2022-12-17T05:36:18.925Z,16.87
2022-12-17T05:39:04.549Z,17.08
2022-12-17T05:41:50.155Z,17.35
2022-12-17T05:44:35.691Z,16.62
2022-12-17T05:47:21.275Z,17.98
2022-12-17T05:50:06.791Z,18.08
2022-12-17T05:52:52.507Z,14.60
2022-12-17T05:55:38.126Z,18.60
2022-12-17T05:58:25.255Z,18.67
2022-12-17T06:01:18.007Z,16.30
2022-12-17T06:04:03.812Z,14.45
2022-12-17T06:06:49.528Z,11.30
2022-12-17T06:09:34.836Z,13.35
2022-12-17T06:12:20.928Z,17.12
2022-12-17T06:15:06.185Z,17.23
2022-12-17T06:17:51.838Z,14.48
2022-12-17T06:20:37.902Z,16.75
2022-12-17T06:23:25.369Z,14.05
2022-12-17T06:26:14.941Z,15.55
2022-12-17T06:29:01.321Z,12.50
2022-12-17T06:31:46.889Z,15.45
2022-12-17T06:34:32.531Z,13.10
2022-12-17T06:37:17.863Z,14.55
2022-12-17T06:40:03.318Z,13.80
2022-12-17T06:42:48.927Z,14.85
2022-12-17T06:45:34.445Z,16.55
2022-12-17T06:48:23.512Z,15.88
2022-12-17T06:51:09.187Z,15.25
2022-12-17T06:53:54.743Z,13.10
2022-12-17T06:56:40.430Z,13.15
2022-12-17T06:59:26.078Z,16.33
2022-12-17T07:02:11.697Z,16.77
2022-12-17T07:04:57.299Z,13.90
2022-12-17T07:07:42.818Z,15.48
2022-12-17T07:10:28.451Z,13.52
2022-12-17T07:13:13.983Z,14.73
2022-12-17T07:15:59.578Z,15.02
2022-12-17T07:18:45.143Z,14.90
2022-12-17T07:21:30.703Z,14.05
2022-12-17T07:24:16.279Z,14.93
2022-12-17T07:27:01.795Z,16.52
2022-12-17T07:29:47.352Z,15.05
2022-12-17T07:32:32.932Z,13.30
2022-12-17T07:35:18.441Z,15.60
2022-12-17T07:38:04.013Z,16.05
2022-12-17T07:40:49.607Z,14.95
2022-12-17T07:43:35.405Z,13.80
2022-12-17T07:46:21.216Z,17.20
2022-12-17T07:49:06.735Z,14.93
2022-12-17T07:51:52.419Z,17.30
2022-12-17T07:54:38.012Z,14.43
2022-12-17T07:57:23.425Z,14.57
2022-12-17T08:00:09.205Z,15.40
2022-12-17T08:03:05.562Z,14.73
2022-12-17T08:05:51.241Z,14.77
2022-12-17T08:08:36.673Z,13.00
2022-12-17T08:11:22.296Z,12.30
2022-12-17T08:14:07.860Z,13.43
2022-12-17T08:16:53.420Z,14.82
2022-12-17T08:19:39.524Z,13.77
2022-12-17T08:22:25.075Z,13.77
2022-12-17T08:25:10.772Z,14.98
2022-12-17T08:27:56.356Z,15.52
2022-12-17T08:30:42.746Z,13.68
2022-12-17T08:33:41.997Z,14.32
2022-12-17T08:36:28.039Z,15.23
2022-12-17T08:39:24.363Z,14.48
2022-12-17T08:42:09.930Z,14.02
2022-12-17T08:44:55.580Z,13.40
2022-12-17T08:47:42.753Z,14.90
2022-12-17T08:50:28.407Z,15.25
2022-12-17T08:53:21.448Z,15.32
2022-12-17T08:56:07.045Z,16.02
2022-12-17T08:58:58.679Z,15.07
2022-12-17T09:01:44.612Z,15.18
2022-12-17T09:04:30.065Z,13.55
2022-12-17T09:07:15.723Z,14.57
2022-12-17T09:10:01.040Z,14.60
2022-12-17T09:12:46.725Z,16.30
2022-12-17T09:15:32.266Z,15.35
2022-12-17T09:18:17.835Z,14.20
2022-12-17T09:21:03.326Z,13.62
2022-12-17T09:23:48.591Z,13.73
2022-12-17T09:26:34.186Z,14.48
2022-12-17T09:29:19.833Z,15.95
2022-12-17T09:32:05.227Z,15.50
2022-12-17T09:34:50.680Z,13.98
2022-12-17T09:37:36.314Z,14.93
2022-12-17T09:40:21.883Z,13.70
2022-12-17T09:43:22.122Z,14.07
2022-12-17T09:46:47.493Z,14.77
2022-12-17T09:49:45.125Z,13.50
2022-12-17T09:52:38.118Z,13.75
2022-12-17T09:55:39.891Z,14.27
2022-12-17T09:58:25.754Z,14.27
2022-12-17T10:01:11.525Z,16.17
2022-12-17T10:04:04.828Z,11.10
2022-12-17T10:06:50.000Z,15.32
2022-12-17T10:09:37.135Z,17.10
2022-12-17T10:12:35.498Z,15.25
2022-12-17T10:15:21.552Z,15.38
2022-12-17T10:18:07.118Z,12.80
2022-12-17T10:20:57.372Z,13.45
2022-12-17T10:23:47.411Z,13.82
2022-12-17T10:26:47.164Z,13.77
2022-12-17T10:29:47.069Z,15.82
2022-12-17T10:32:33.532Z,14.25
2022-12-17T10:35:20.211Z,14.63
2022-12-17T10:38:05.425Z,16.58
2022-12-17T10:40:52.243Z,13.62
2022-12-17T10:43:58.476Z,11.77
2022-12-17T10:46:47.852Z,15.93
2022-12-17T10:49:38.869Z,15.23
2022-12-17T10:52:34.058Z,16.37
2022-12-17T10:55:22.331Z,15.32
2022-12-17T10:58:09.493Z,17.35
2022-12-17T11:01:03.813Z,16.95
2022-12-17T11:03:55.015Z,13.82
2022-12-17T11:06:49.300Z,16.58
2022-12-17T11:09:55.846Z,14.93
2022-12-17T11:12:46.458Z,12.05
2022-12-17T11:15:51.757Z,15.27
2022-12-17T11:18:42.055Z,15.70
2022-12-17T11:21:40.326Z,15.43
2022-12-17T11:24:32.471Z,10.55
2022-12-17T11:27:18.274Z,12.15
2022-12-17T11:30:04.108Z,15.55
2022-12-17T11:33:04.161Z,15.35
2022-12-17T11:35:58.624Z,14.80
2022-12-17T11:38:51.632Z,15.13
2022-12-17T11:41:42.480Z,14.48
2022-12-17T11:45:18.495Z,15.75
2022-12-17T11:48:12.383Z,15.57
2022-12-17T11:51:15.593Z,14.52
2022-12-17T11:54:20.109Z,14.43
2022-12-17T11:57:20.170Z,15.60
2022-12-17T12:00:20.658Z,13.90
2022-12-17T12:03:54.136Z,13.23
2022-12-17T12:06:53.519Z,14.27
2022-12-17T12:10:07.011Z,15.23
2022-12-17T12:13:01.737Z,15.43
2022-12-17T12:16:13.544Z,16.05
2022-12-17T12:19:14.055Z,15.45
2022-12-17T12:22:07.788Z,14.50
2022-12-17T12:25:00.931Z,14.05
2022-12-17T12:28:39.117Z,14.50
2022-12-17T12:31:36.272Z,16.08
2022-12-17T12:34:31.728Z,14.65
2022-12-17T12:37:19.667Z,13.13
2022-12-17T12:43:07.438Z,12.45
2022-12-17T12:46:01.847Z,11.10
2022-12-17T12:49:03.973Z,12.80
2022-12-17T12:51:53.328Z,10.63
2022-12-17T12:54:46.175Z,12.95
2022-12-17T12:57:47.788Z,13.23
2022-12-17T13:01:10.303Z,12.88
2022-12-17T13:04:04.495Z,12.82
2022-12-17T13:06:54.363Z,12.98
2022-12-17T13:09:30.893Z,12.93
2022-12-17T13:12:04.955Z,13.88
2022-12-17T13:14:51.339Z,12.35
2022-12-17T13:17:18.133Z,13.02
2022-12-17T13:22:34.776Z,14.38
2022-12-17T13:25:17.734Z,15.85
2022-12-17T13:27:44.699Z,12.77
2022-12-17T13:30:17.562Z,14.07
2022-12-17T13:33:21.301Z,15.38
2022-12-17T13:36:09.375Z,15.32
2022-12-17T13:41:28.340Z,14.10
2022-12-17T13:43:59.415Z,15.80
2022-12-17T13:46:36.513Z,12.82
2022-12-17T13:49:05.196Z,13.52
2022-12-17T13:51:34.987Z,12.05
2022-12-17T13:54:04.087Z,10.32
2022-12-17T13:56:31.917Z,11.80
2022-12-17T13:59:08.000Z,13.15
2022-12-17T14:01:45.356Z,12.82
2022-12-17T14:04:20.929Z,13.03
2022-12-17T14:06:47.893Z,11.98
2022-12-17T14:09:17.554Z,12.10
2022-12-17T14:12:03.232Z,12.55
2022-12-17T14:14:35.056Z,13.77
2022-12-17T14:17:02.119Z,12.77
2022-12-17T14:19:29.574Z,12.25
2022-12-17T14:21:56.802Z,12.15
2022-12-17T14:24:27.312Z,14.18
2022-12-17T14:26:56.557Z,12.95
2022-12-17T14:29:31.285Z,14.10
2022-12-17T14:32:02.197Z,13.40
2022-12-17T14:34:30.200Z,14.85
2022-12-17T14:36:58.997Z,13.55
2022-12-17T14:39:29.005Z,11.50
2022-12-17T14:42:16.657Z,13.13
2022-12-17T14:45:06.452Z,11.98
2022-12-17T14:47:35.136Z,12.37
2022-12-17T14:50:07.260Z,12.48
2022-12-17T14:52:44.122Z,11.70
2022-12-17T14:55:31.586Z,14.27
2022-12-17T14:58:13.765Z,13.85
2022-12-17T15:00:44.932Z,13.70
2022-12-17T15:03:19.747Z,11.10
2022-12-17T15:05:57.155Z,12.80
2022-12-17T15:08:24.024Z,13.45
2022-12-17T15:10:50.925Z,9.68
2022-12-17T15:15:44.468Z,12.73
2022-12-17T15:20:38.143Z,11.57
2022-12-17T15:23:05.009Z,14.55
2022-12-17T15:27:58.495Z,14.00
2022-12-17T15:32:52.106Z,13.13
2022-12-17T15:37:45.730Z,10.98
2022-12-17T15:43:01.655Z,10.95
2022-12-17T15:45:32.833Z,12.50
2022-12-17T15:50:26.659Z,11.55
2022-12-17T15:52:53.520Z,11.75
2022-12-17T15:57:47.075Z,14.05
2022-12-17T16:02:41.011Z,12.93
2022-12-17T16:05:08.542Z,9.15
2022-12-17T16:07:35.595Z,12.73
2022-12-17T16:10:05.335Z,13.52
2022-12-17T16:12:32.976Z,12.95
2022-12-17T16:14:59.812Z,12.95
2022-12-17T16:19:53.351Z,15.55
2022-12-17T16:24:47.169Z,13.20
2022-12-17T16:27:14.719Z,11.57
2022-12-17T16:29:41.614Z,12.98
2022-12-17T16:34:35.238Z,12.90
2022-12-17T16:37:02.085Z,15.57
2022-12-17T16:39:29.137Z,9.90
2022-12-17T16:41:56.017Z,11.98
2022-12-17T16:46:49.712Z,13.32
2022-12-17T16:49:23.664Z,12.30
2022-12-17T16:51:52.095Z,13.27
2022-12-17T16:54:24.401Z,10.02
2022-12-17T16:56:51.447Z,13.18
2022-12-17T16:59:18.943Z,13.32
2022-12-17T17:01:48.369Z,12.85
2022-12-17T17:04:16.717Z,14.05
2022-12-17T17:06:49.521Z,12.43
2022-12-17T17:09:16.869Z,13.55
2022-12-17T17:11:48.142Z,12.98
2022-12-17T17:14:18.019Z,13.88
2022-12-17T17:16:44.884Z,13.48
2022-12-17T17:19:11.834Z,9.02
2022-12-17T17:21:40.683Z,12.50
2022-12-17T17:24:16.748Z,14.70
2022-12-17T17:26:45.467Z,12.77
2022-12-17T17:34:25.993Z,10.90
2022-12-17T17:39:19.518Z,12.05
2022-12-17T17:41:46.433Z,10.75
2022-12-17T17:46:40.909Z,13.03
2022-12-17T17:49:08.849Z,12.10
2022-12-17T17:54:25.108Z,12.70
2022-12-17T17:56:51.924Z,12.75
2022-12-17T18:01:49.655Z,9.70
2022-12-17T18:04:21.628Z,11.75
2022-12-17T18:07:23.068Z,10.05
2022-12-17T18:09:35.551Z,9.93
2022-12-17T18:15:12.435Z,11.70
2022-12-17T18:17:36.049Z,10.27
2022-12-17T18:22:29.653Z,10.50
2022-12-17T18:27:23.099Z,9.90
2022-12-17T18:32:16.679Z,10.77
2022-12-17T18:34:43.708Z,11.40
2022-12-17T18:37:10.646Z,11.70
2022-12-17T18:39:37.497Z,10.60
2022-12-17T18:42:22.829Z,11.50
2022-12-17T18:44:49.685Z,8.32
2022-12-17T18:47:16.768Z,7.72
2022-12-17T18:49:43.646Z,9.93
2022-12-17T18:52:16.236Z,10.93
2022-12-17T18:54:43.893Z,7.37
2022-12-17T18:57:10.756Z,9.68
2022-12-17T18:59:38.632Z,10.82
2022-12-17T19:02:05.625Z,8.30
2022-12-17T19:04:33.202Z,10.27
2022-12-17T19:07:00.154Z,8.95
2022-12-17T19:11:58.378Z,9.68
2022-12-17T19:14:25.924Z,8.80
2022-12-17T19:16:54.784Z,7.28
2022-12-17T19:19:22.691Z,11.63
2022-12-17T19:21:49.980Z,6.80
2022-12-17T19:24:18.583Z,9.55
2022-12-17T19:26:45.936Z,8.55
2022-12-17T19:29:14.108Z,8.50
2022-12-17T19:31:41.063Z,9.57
2022-12-17T19:34:11.370Z,11.80
2022-12-17T19:36:39.013Z,10.07
2022-12-17T19:39:08.001Z,11.05
2022-12-17T19:41:35.210Z,9.52
2022-12-17T19:44:07.171Z,8.30
2022-12-17T19:46:35.229Z,8.32
2022-12-17T19:49:02.547Z,8.65
2022-12-17T19:51:30.769Z,9.63
2022-12-17T19:54:01.793Z,9.05
2022-12-17T19:56:33.609Z,10.02
2022-12-17T19:59:03.345Z,9.45
2022-12-17T20:01:36.797Z,7.65
2022-12-17T20:04:04.607Z,9.38
2022-12-17T20:06:33.391Z,8.13
2022-12-17T20:09:00.981Z,8.60
2022-12-17T20:11:34.204Z,10.40
2022-12-17T20:14:17.942Z,11.65
2022-12-17T20:16:53.322Z,7.93
2022-12-17T20:19:22.548Z,9.95
2022-12-17T20:21:49.600Z,10.43
2022-12-17T20:24:17.327Z,8.98
2022-12-17T20:26:45.308Z,10.35
2022-12-17T20:29:12.428Z,10.60
2022-12-17T20:31:39.921Z,9.93
2022-12-17T20:34:08.773Z,9.15
2022-12-17T20:36:36.211Z,9.52
2022-12-17T20:39:03.620Z,10.57
2022-12-17T20:41:31.632Z,7.70
2022-12-17T20:43:59.118Z,10.23
2022-12-17T20:46:26.096Z,10.40
2022-12-17T20:48:53.629Z,10.38
2022-12-17T20:51:23.593Z,11.63
2022-12-17T20:53:52.162Z,8.00
2022-12-17T20:56:21.759Z,9.52
2022-12-17T20:58:53.082Z,9.27
2022-12-17T21:01:22.016Z,12.23
2022-12-17T21:03:50.651Z,10.25
2022-12-17T21:06:22.152Z,9.50
2022-12-17T21:08:51.655Z,5.90
2022-12-17T21:11:20.499Z,9.40
2022-12-17T21:13:47.416Z,9.23
2022-12-17T21:16:19.120Z,9.85
2022-12-17T21:18:46.051Z,9.23
2022-12-17T21:23:41.536Z,10.73
2022-12-17T21:26:12.197Z,9.82
2022-12-17T21:28:41.619Z,10.07
2022-12-17T21:31:24.709Z,8.85
2022-12-17T21:33:54.219Z,9.38
2022-12-17T21:36:22.434Z,10.25
2022-12-17T21:38:49.717Z,10.10
2022-12-17T21:41:21.920Z,10.65
2022-12-17T21:43:53.242Z,6.57
2022-12-17T21:46:20.262Z,9.45
2022-12-17T21:48:47.581Z,8.60
2022-12-17T21:51:15.285Z,11.50
2022-12-17T21:53:43.781Z,12.45
2022-12-17T21:56:16.647Z,9.15
2022-12-17T21:58:44.963Z,9.98
2022-12-17T22:01:23.830Z,9.05
2022-12-17T22:03:54.128Z,11.45
2022-12-17T22:06:23.945Z,12.00
2022-12-17T22:08:52.768Z,9.65
2022-12-17T22:11:25.909Z,10.63
2022-12-17T22:14:18.979Z,10.52
2022-12-17T22:16:49.719Z,10.65
2022-12-17T22:19:22.517Z,9.80
2022-12-17T22:21:51.067Z,11.80
2022-12-17T22:24:23.069Z,10.65
2022-12-17T22:26:49.894Z,10.82
2022-12-17T22:32:22.410Z,7.03
2022-12-17T22:35:20.852Z,9.85
2022-12-17T22:40:48.119Z,9.90
2022-12-17T22:44:24.445Z,6.45
2022-12-17T22:44:41.789Z,8.48
2022-12-17T22:46:17.186Z,10.57
2022-12-17T22:48:44.641Z,8.60
2022-12-17T22:51:12.846Z,9.80
2022-12-17T22:53:43.262Z,8.65
2022-12-17T22:56:20.053Z,9.85
2022-12-17T22:58:57.831Z,8.95
2022-12-17T23:01:24.847Z,10.00
2022-12-17T23:03:55.929Z,9.52
2022-12-17T23:06:23.312Z,9.05
2022-12-17T23:08:50.469Z,10.10
2022-12-17T23:11:24.072Z,9.27
2022-12-17T23:13:51.860Z,9.73
2022-12-17T23:16:19.848Z,9.25
2022-12-17T23:18:48.227Z,9.13
2022-12-17T23:21:20.661Z,9.30
2022-12-17T23:23:47.527Z,10.32
2022-12-17T23:28:45.698Z,8.23
2022-12-17T23:31:17.819Z,8.35
2022-12-17T23:33:45.394Z,9.77
2022-12-17T23:36:14.983Z,10.10
2022-12-17T23:38:42.344Z,9.18
2022-12-17T23:41:11.915Z,9.60
2022-12-17T23:43:40.007Z,9.52
2022-12-17T23:46:08.233Z,8.60
2022-12-17T23:48:42.016Z,7.95
2022-12-17T23:51:12.163Z,9.18
2022-12-17T23:53:39.560Z,8.45
2022-12-17T23:56:12.442Z,7.78
2022-12-17T23:58:41.604Z,7.75
